Time;durP1;ratioP1;P1;durP2;ratioP2;P2;SDS_P1;SDS_P2;PMS_P1;PMS_P2;Temp;Humidity;BMP_temperature;BMP_pressure;BME280_temperature;BME280_humidity;BME280_pressure;Samples;Min_cycle;Max_cycle;Signal;HPM_P1;HPM_P2
2023/11/28 00:02:16;;;;;;;11.10;7.43;;;;;;;;;;5024306;28;20418;-43
2023/11/28 00:04:42;;;;;;;11.50;8.07;;;;;;;;;;5027036;28;20480;-43
2023/11/28 00:07:08;;;;;;;11.15;7.95;;;;;;;;;;5024734;28;21009;-43
2023/11/28 00:09:34;;;;;;;13.20;9.40;;;;;;;;;;5019212;28;20275;-43
2023/11/28 00:12:00;;;;;;;11.07;8.43;;;;;;;;;;5026056;28;20418;-43
2023/11/28 00:14:26;;;;;;;12.23;8.50;;;;;;;;;;5024201;28;20411;-43
2023/11/28 00:16:52;;;;;;;10.82;7.65;;;;;;;;;;5025285;28;20431;-44
2023/11/28 00:19:18;;;;;;;9.80;7.40;;;;;;;;;;5023563;28;20182;-44
2023/11/28 00:21:44;;;;;;;12.53;10.87;;;;;;;;;;5024983;28;20415;-43
2023/11/28 00:24:10;;;;;;;12.57;10.45;;;;;;;;;;5023455;28;20471;-44
2023/11/28 00:26:36;;;;;;;12.40;10.40;;;;;;;;;;5022405;28;20176;-44
2023/11/28 00:29:02;;;;;;;12.20;9.57;;;;;;;;;;5019992;28;20501;-44
2023/11/28 00:31:28;;;;;;;11.23;7.65;;;;;;;;;;5024171;28;20641;-44
2023/11/28 00:33:54;;;;;;;11.90;8.27;;;;;;;;;;5024664;28;20172;-44
2023/11/28 00:36:20;;;;;;;12.13;8.87;;;;;;;;;;5024198;28;20771;-44
2023/11/28 00:38:46;;;;;;;12.07;8.87;;;;;;;;;;5023738;28;20447;-44
2023/11/28 00:41:12;;;;;;;9.30;6.43;;;;;;;;;;5026494;28;20422;-45
2023/11/28 00:43:38;;;;;;;9.57;6.65;;;;;;;;;;5022299;28;20176;-43
2023/11/28 00:46:05;;;;;;;11.02;8.18;;;;;;;;;;5026660;28;20198;-43
2023/11/28 00:48:30;;;;;;;11.10;7.50;;;;;;;;;;5021299;28;20208;-44
2023/11/28 00:50:56;;;;;;;9.53;6.77;;;;;;;;;;5022709;28;20187;-43
2023/11/28 00:53:23;;;;;;;13.10;10.23;;;;;;;;;;5022996;28;20399;-44
2023/11/28 00:55:49;;;;;;;11.70;9.75;;;;;;;;;;5021818;28;20199;-44
2023/11/28 00:58:15;;;;;;;11.73;10.55;;;;;;;;;;5022048;28;20208;-44
2023/11/28 01:00:41;;;;;;;11.83;10.20;;;;;;;;;;5027334;28;20215;-43
2023/11/28 01:03:07;;;;;;;11.30;9.48;;;;;;;;;;5025395;28;20414;-44
2023/11/28 01:05:33;;;;;;;16.93;12.87;;;;;;;;;;5019804;28;20188;-44
2023/11/28 01:07:59;;;;;;;11.80;7.83;;;;;;;;;;5019761;28;20465;-44
2023/11/28 01:10:25;;;;;;;11.47;8.93;;;;;;;;;;5023176;28;20440;-43
2023/11/28 01:12:51;;;;;;;12.23;10.93;;;;;;;;;;5025749;28;20417;-45
2023/11/28 01:15:18;;;;;;;12.13;8.13;;;;;;;;;;5022803;28;20416;-44
2023/11/28 01:17:44;;;;;;;10.57;7.88;;;;;;;;;;5025100;28;20443;-44
2023/11/28 01:20:12;;;;;;;11.43;10.02;;;;;;;;;;5023929;28;20180;-44
2023/11/28 01:22:38;;;;;;;12.45;10.05;;;;;;;;;;5017757;28;20176;-44
2023/11/28 01:25:04;;;;;;;9.80;7.80;;;;;;;;;;5025009;28;20184;-44
2023/11/28 01:27:30;;;;;;;10.60;8.43;;;;;;;;;;5022411;28;20477;-44
2023/11/28 01:29:56;;;;;;;11.63;8.37;;;;;;;;;;5023694;28;20191;-44
2023/11/28 01:32:22;;;;;;;10.95;7.78;;;;;;;;;;5022502;28;20408;-44
2023/11/28 01:34:48;;;;;;;11.52;8.57;;;;;;;;;;5022901;28;20549;-44
2023/11/28 01:37:16;;;;;;;12.55;8.90;;;;;;;;;;5022030;28;20210;-44
2023/11/28 01:39:42;;;;;;;10.80;8.00;;;;;;;;;;5021236;28;20234;-44
2023/11/28 01:42:08;;;;;;;11.87;9.63;;;;;;;;;;5026646;28;20187;-44
2023/11/28 01:44:34;;;;;;;11.55;9.68;;;;;;;;;;5020925;28;20402;-45
2023/11/28 01:47:00;;;;;;;11.70;9.47;;;;;;;;;;5020826;28;20215;-44
2023/11/28 01:49:32;;;;;;;10.77;8.85;;;;;;;;;;5022315;28;20411;-45
2023/11/28 01:51:58;;;;;;;12.27;10.30;;;;;;;;;;5020915;28;20184;-44
2023/11/28 01:54:25;;;;;;;11.63;8.55;;;;;;;;;;5022268;28;20279;-44
2023/11/28 01:56:52;;;;;;;11.80;9.00;;;;;;;;;;5025340;28;20179;-44
2023/11/28 01:59:18;;;;;;;12.77;10.57;;;;;;;;;;5025386;28;20191;-45
2023/11/28 02:01:44;;;;;;;13.65;11.15;;;;;;;;;;5019633;28;20660;-44
2023/11/28 02:04:10;;;;;;;10.88;9.60;;;;;;;;;;5017465;28;20199;-44
2023/11/28 02:06:36;;;;;;;10.43;8.10;;;;;;;;;;5023006;28;20650;-44
2023/11/28 02:09:02;;;;;;;10.95;8.80;;;;;;;;;;5022735;28;20176;-45
2023/11/28 02:11:28;;;;;;;12.00;8.30;;;;;;;;;;5022073;28;20176;-45
2023/11/28 02:13:54;;;;;;;11.05;8.02;;;;;;;;;;5023337;28;20494;-45
2023/11/28 02:16:20;;;;;;;12.03;8.67;;;;;;;;;;5023500;28;20176;-44
2023/11/28 02:18:46;;;;;;;10.53;7.77;;;;;;;;;;5018225;28;20470;-45
2023/11/28 02:21:13;;;;;;;11.40;8.32;;;;;;;;;;5015879;28;20422;-44
2023/11/28 02:23:39;;;;;;;9.95;7.28;;;;;;;;;;5022164;28;20245;-44
2023/11/28 02:26:25;;;;;;;10.40;7.93;;;;;;;;;;5021565;28;20513;-44
2023/11/28 02:28:51;;;;;;;10.63;8.15;;;;;;;;;;5013574;28;20677;-44
2023/11/28 02:31:18;;;;;;;12.35;8.65;;;;;;;;;;5020714;28;20215;-44
2023/11/28 02:33:44;;;;;;;11.50;9.00;;;;;;;;;;5021255;28;20189;-44
2023/11/28 02:36:10;;;;;;;12.48;10.52;;;;;;;;;;5019666;28;20549;-45
2023/11/28 02:38:36;;;;;;;11.60;9.35;;;;;;;;;;5021981;28;20196;-45
2023/11/28 02:41:02;;;;;;;11.85;10.18;;;;;;;;;;5023705;28;20177;-45
2023/11/28 02:43:28;;;;;;;11.93;9.07;;;;;;;;;;5018858;28;20599;-45
2023/11/28 02:45:54;;;;;;;11.55;9.05;;;;;;;;;;5019508;28;20454;-45
2023/11/28 02:48:20;;;;;;;12.13;9.55;;;;;;;;;;5019986;28;20672;-45
2023/11/28 02:50:46;;;;;;;12.15;9.48;;;;;;;;;;5020112;28;20171;-45
2023/11/28 02:53:12;;;;;;;11.32;8.77;;;;;;;;;;5020063;28;20168;-45
2023/11/28 02:55:38;;;;;;;14.23;11.88;;;;;;;;;;5025061;28;20175;-44
2023/11/28 02:58:04;;;;;;;11.33;8.83;;;;;;;;;;5022215;28;20310;-45
2023/11/28 03:00:30;;;;;;;11.80;8.95;;;;;;;;;;5016990;28;20461;-45
2023/11/28 03:02:56;;;;;;;11.70;9.37;;;;;;;;;;5017858;28;20176;-45
2023/11/28 03:05:22;;;;;;;11.07;7.90;;;;;;;;;;5020910;28;20502;-45
2023/11/28 03:07:48;;;;;;;11.33;9.10;;;;;;;;;;5023098;28;20748;-44
2023/11/28 03:10:14;;;;;;;11.57;9.13;;;;;;;;;;5020260;28;20772;-45
2023/11/28 03:12:40;;;;;;;12.23;9.50;;;;;;;;;;5023301;28;20755;-44
2023/11/28 03:15:06;;;;;;;11.90;9.33;;;;;;;;;;5020783;28;20756;-45
2023/11/28 03:17:32;;;;;;;16.35;12.98;;;;;;;;;;5018372;28;20440;-44
2023/11/28 03:19:58;;;;;;;11.20;9.47;;;;;;;;;;5019629;28;20587;-44
2023/11/28 03:22:24;;;;;;;11.73;9.38;;;;;;;;;;5013221;28;20510;-44
2023/11/28 03:24:51;;;;;;;11.63;10.23;;;;;;;;;;5027234;28;20656;-44
2023/11/28 03:27:18;;;;;;;11.57;9.38;;;;;;;;;;5029392;28;20679;-44
2023/11/28 03:29:44;;;;;;;13.63;11.63;;;;;;;;;;5016432;28;20191;-44
2023/11/28 03:32:11;;;;;;;9.75;7.93;;;;;;;;;;5027030;28;20242;-44
2023/11/28 03:34:39;;;;;;;11.32;8.82;;;;;;;;;;5006496;28;20175;-44
2023/11/28 03:37:05;;;;;;;9.93;8.93;;;;;;;;;;5025177;28;20199;-44
2023/11/28 03:39:31;;;;;;;10.73;7.28;;;;;;;;;;5026997;28;20172;-44
2023/11/28 03:41:57;;;;;;;11.97;10.70;;;;;;;;;;5029202;28;20184;-44
2023/11/28 03:44:23;;;;;;;13.82;10.43;;;;;;;;;;5031486;28;20414;-44
2023/11/28 03:46:49;;;;;;;12.55;9.05;;;;;;;;;;5027960;28;20179;-44
2023/11/28 03:49:15;;;;;;;11.40;9.90;;;;;;;;;;5026624;28;20516;-44
2023/11/28 03:51:41;;;;;;;12.03;10.73;;;;;;;;;;5028161;28;20406;-44
2023/11/28 03:54:07;;;;;;;11.90;8.95;;;;;;;;;;5007029;28;20410;-44
2023/11/28 03:56:33;;;;;;;12.07;10.67;;;;;;;;;;5025702;28;20208;-44
2023/11/28 03:58:59;;;;;;;10.20;8.13;;;;;;;;;;5028442;28;20412;-44
2023/11/28 04:01:25;;;;;;;11.43;8.82;;;;;;;;;;5007561;28;20827;-44
2023/11/28 04:03:51;;;;;;;12.03;10.73;;;;;;;;;;5028320;28;20183;-44
2023/11/28 04:06:17;;;;;;;12.33;10.37;;;;;;;;;;5027112;28;20420;-44
2023/11/28 04:08:43;;;;;;;11.95;8.85;;;;;;;;;;5026828;28;20484;-44
2023/11/28 04:11:09;;;;;;;12.80;11.50;;;;;;;;;;5026413;28;20544;-44
2023/11/28 04:13:35;;;;;;;11.73;9.77;;;;;;;;;;5031461;28;20887;-44
2023/11/28 04:16:01;;;;;;;11.90;10.15;;;;;;;;;;5027899;28;20431;-43
2023/11/28 04:18:30;;;;;;;12.57;11.23;;;;;;;;;;5030712;28;20227;-44
2023/11/28 04:20:56;;;;;;;10.40;8.50;;;;;;;;;;5024081;28;20449;-44
2023/11/28 04:23:22;;;;;;;10.97;8.53;;;;;;;;;;5030937;28;20175;-44
2023/11/28 04:25:48;;;;;;;11.52;9.70;;;;;;;;;;5004953;28;20428;-44
2023/11/28 04:28:14;;;;;;;13.80;12.40;;;;;;;;;;5025672;28;20295;-44
2023/11/28 04:30:40;;;;;;;11.10;9.03;;;;;;;;;;5025922;28;20395;-44
2023/11/28 04:33:06;;;;;;;13.30;12.00;;;;;;;;;;5027319;28;20388;-44
2023/11/28 04:35:32;;;;;;;17.33;15.50;;;;;;;;;;5025236;28;20482;-44
2023/11/28 04:37:58;;;;;;;11.73;9.60;;;;;;;;;;5025011;28;20434;-44
2023/11/28 04:40:24;;;;;;;13.37;11.97;;;;;;;;;;5012794;28;20910;-44
2023/11/28 04:42:50;;;;;;;13.70;11.97;;;;;;;;;;5027227;28;20419;-44
2023/11/28 04:45:16;;;;;;;13.20;12.00;;;;;;;;;;5025735;28;20501;-44
2023/11/28 04:47:42;;;;;;;12.27;11.07;;;;;;;;;;5027003;28;20553;-43
2023/11/28 04:50:08;;;;;;;13.38;12.13;;;;;;;;;;5025640;28;20403;-44
2023/11/28 04:52:35;;;;;;;10.20;9.02;;;;;;;;;;5025584;28;20263;-44
2023/11/28 04:55:03;;;;;;;11.32;9.52;;;;;;;;;;5027313;28;20172;-43
2023/11/28 04:57:29;;;;;;;14.05;12.65;;;;;;;;;;5024002;28;20199;-44
2023/11/28 04:59:55;;;;;;;10.70;8.60;;;;;;;;;;5027590;28;20198;-43
2023/11/28 05:02:21;;;;;;;13.80;12.38;;;;;;;;;;5024573;28;20858;-43
2023/11/28 05:04:47;;;;;;;11.67;10.50;;;;;;;;;;5023466;28;20210;-43
2023/11/28 05:07:14;;;;;;;13.20;11.82;;;;;;;;;;5020772;28;20469;-44
2023/11/28 05:09:40;;;;;;;12.90;11.43;;;;;;;;;;5013786;28;20654;-44
2023/11/28 05:12:08;;;;;;;12.43;11.23;;;;;;;;;;5022218;28;20247;-43
2023/11/28 05:14:36;;;;;;;11.40;9.77;;;;;;;;;;5029275;28;20411;-43
2023/11/28 05:17:04;;;;;;;10.73;9.52;;;;;;;;;;5023135;28;20552;-43
2023/11/28 05:19:29;;;;;;;15.38;11.48;;;;;;;;;;5031890;28;20159;-44
2023/11/28 05:21:55;;;;;;;12.33;9.93;;;;;;;;;;5032776;28;20608;-45
2023/11/28 05:24:21;;;;;;;12.88;9.25;;;;;;;;;;5018526;28;20415;-44
2023/11/28 05:26:47;;;;;;;12.73;10.73;;;;;;;;;;5023296;28;20226;-44
2023/11/28 05:29:13;;;;;;;11.03;8.77;;;;;;;;;;5026640;28;20938;-44
2023/11/28 05:31:39;;;;;;;13.47;11.67;;;;;;;;;;5015327;28;20509;-44
2023/11/28 05:34:05;;;;;;;11.63;9.17;;;;;;;;;;5033102;28;20410;-45
2023/11/28 05:36:31;;;;;;;10.63;9.43;;;;;;;;;;5014702;28;20961;-45
2023/11/28 05:38:57;;;;;;;13.23;11.80;;;;;;;;;;5013199;28;20204;-44
2023/11/28 05:41:23;;;;;;;11.80;9.27;;;;;;;;;;5012928;28;20420;-44
2023/11/28 05:43:50;;;;;;;11.77;9.13;;;;;;;;;;5007610;28;20908;-44
2023/11/28 05:46:16;;;;;;;13.13;10.40;;;;;;;;;;4994120;28;20173;-45
2023/11/28 05:48:42;;;;;;;11.77;8.57;;;;;;;;;;5012716;28;20220;-44
2023/11/28 05:51:09;;;;;;;12.33;9.87;;;;;;;;;;4995575;28;20416;-44
2023/11/28 05:53:35;;;;;;;12.25;9.52;;;;;;;;;;5006539;28;21136;-45
2023/11/28 05:56:01;;;;;;;11.15;8.05;;;;;;;;;;5003229;28;20176;-44
2023/11/28 05:58:27;;;;;;;10.00;7.70;;;;;;;;;;4998510;28;20196;-44
2023/11/28 06:00:53;;;;;;;12.70;10.50;;;;;;;;;;5011593;28;20632;-45
2023/11/28 06:03:19;;;;;;;11.63;9.73;;;;;;;;;;4993161;28;20784;-44
2023/11/28 06:05:45;;;;;;;12.87;9.40;;;;;;;;;;5009209;28;20415;-45
2023/11/28 06:08:12;;;;;;;10.03;7.00;;;;;;;;;;4998986;28;20511;-44
2023/11/28 06:10:38;;;;;;;10.27;7.97;;;;;;;;;;5001234;28;20411;-45
2023/11/28 06:13:04;;;;;;;11.33;8.60;;;;;;;;;;5007126;28;20177;-44
2023/11/28 06:15:30;;;;;;;16.67;13.23;;;;;;;;;;4992911;28;20951;-44
2023/11/28 06:17:56;;;;;;;13.13;9.80;;;;;;;;;;5011956;28;20465;-44
2023/11/28 06:20:22;;;;;;;13.63;9.38;;;;;;;;;;4995248;28;20422;-45
2023/11/28 06:22:48;;;;;;;11.23;8.67;;;;;;;;;;5005103;28;20184;-45
2023/11/28 06:25:14;;;;;;;12.10;9.60;;;;;;;;;;5011892;28;20415;-44
2023/11/28 06:27:42;;;;;;;11.40;8.32;;;;;;;;;;5007392;28;20486;-45
2023/11/28 06:30:08;;;;;;;11.43;8.70;;;;;;;;;;4993089;28;20214;-44
2023/11/28 06:32:34;;;;;;;9.95;7.70;;;;;;;;;;5012403;28;20184;-44
2023/11/28 06:35:00;;;;;;;13.23;11.20;;;;;;;;;;4995799;28;20356;-45
2023/11/28 06:37:26;;;;;;;13.50;9.50;;;;;;;;;;5004336;28;20437;-44
2023/11/28 06:39:52;;;;;;;12.30;9.90;;;;;;;;;;5003927;28;20471;-44
2023/11/28 06:42:20;;;;;;;11.07;7.30;;;;;;;;;;4996821;28;20199;-45
2023/11/28 06:44:46;;;;;;;11.68;8.80;;;;;;;;;;5011719;28;20399;-44
2023/11/28 06:47:12;;;;;;;12.73;10.53;;;;;;;;;;4992115;28;20205;-45
2023/11/28 06:49:38;;;;;;;13.07;10.43;;;;;;;;;;5008146;28;20406;-44
2023/11/28 06:52:04;;;;;;;10.20;7.80;;;;;;;;;;5000016;28;20184;-44
2023/11/28 06:54:30;;;;;;;12.65;11.15;;;;;;;;;;5000403;28;20487;-44
2023/11/28 06:56:56;;;;;;;12.90;11.30;;;;;;;;;;5007827;28;20268;-44
2023/11/28 06:59:22;;;;;;;11.70;9.27;;;;;;;;;;4992203;28;20659;-44
2023/11/28 07:01:51;;;;;;;12.53;9.50;;;;;;;;;;5011663;28;20414;-44
2023/11/28 07:04:17;;;;;;;12.45;10.57;;;;;;;;;;4995915;28;20432;-44
2023/11/28 07:06:43;;;;;;;14.60;10.55;;;;;;;;;;5003648;28;20170;-44
2023/11/28 07:09:10;;;;;;;11.93;9.60;;;;;;;;;;5003993;28;20571;-44
2023/11/28 07:11:36;;;;;;;12.23;10.60;;;;;;;;;;4996492;28;20407;-44
2023/11/28 07:14:02;;;;;;;10.83;9.57;;;;;;;;;;5012046;28;20260;-43
2023/11/28 07:16:28;;;;;;;11.75;9.70;;;;;;;;;;4992600;28;20413;-43
2023/11/28 07:18:54;;;;;;;11.55;10.07;;;;;;;;;;5007768;28;20196;-43
2023/11/28 07:21:20;;;;;;;12.88;11.45;;;;;;;;;;5000676;28;20184;-43
2023/11/28 07:23:46;;;;;;;13.93;12.48;;;;;;;;;;5012808;28;20222;-44
2023/11/28 07:26:14;;;;;;;12.18;10.73;;;;;;;;;;5023068;28;20200;-43
2023/11/28 07:28:40;;;;;;;12.25;10.73;;;;;;;;;;5014545;28;20207;-44
2023/11/28 07:31:06;;;;;;;15.02;13.63;;;;;;;;;;5020573;28;20175;-44
2023/11/28 07:33:32;;;;;;;13.02;10.77;;;;;;;;;;5027938;28;20577;-43
2023/11/28 07:35:58;;;;;;;12.20;9.73;;;;;;;;;;5022046;28;20268;-44
2023/11/28 07:38:24;;;;;;;12.77;9.68;;;;;;;;;;5027827;28;20797;-44
2023/11/28 07:40:51;;;;;;;14.07;12.23;;;;;;;;;;5024011;28;20179;-43
2023/11/28 07:43:17;;;;;;;12.43;10.88;;;;;;;;;;5027830;28;20186;-44
2023/11/28 07:45:43;;;;;;;13.13;11.57;;;;;;;;;;5021712;28;20478;-43
2023/11/28 07:48:09;;;;;;;14.47;13.13;;;;;;;;;;5020427;28;20461;-44
2023/11/28 07:50:35;;;;;;;13.03;11.70;;;;;;;;;;5022553;28;20421;-44
2023/11/28 07:53:01;;;;;;;13.80;12.40;;;;;;;;;;5025372;28;20414;-44
2023/11/28 07:55:26;;;;;;;15.83;14.17;;;;;;;;;;5021004;28;20563;-43
2023/11/28 07:57:53;;;;;;;13.73;12.43;;;;;;;;;;5019595;28;20466;-43
2023/11/28 08:00:22;;;;;;;14.55;13.15;;;;;;;;;;5008357;28;20853;-43
2023/11/28 08:02:48;;;;;;;16.88;15.35;;;;;;;;;;5006419;28;20184;-44
2023/11/28 08:05:14;;;;;;;11.73;10.43;;;;;;;;;;5023045;28;20272;-43
2023/11/28 08:07:40;;;;;;;13.73;12.27;;;;;;;;;;5022545;28;20810;-44
2023/11/28 08:10:10;;;;;;;14.05;12.68;;;;;;;;;;5007582;28;20211;-43
2023/11/28 08:12:36;;;;;;;13.27;11.93;;;;;;;;;;5026110;28;20218;-43
2023/11/28 08:15:02;;;;;;;16.77;15.20;;;;;;;;;;5027904;28;20560;-43
2023/11/28 08:17:28;;;;;;;17.30;15.60;;;;;;;;;;5030700;28;20438;-43
2023/11/28 08:19:55;;;;;;;13.88;12.48;;;;;;;;;;5023794;28;20237;-44
2023/11/28 08:22:21;;;;;;;15.93;14.43;;;;;;;;;;5019531;28;20556;-43
2023/11/28 08:24:47;;;;;;;15.27;13.87;;;;;;;;;;5026338;28;20190;-44
2023/11/28 08:27:15;;;;;;;16.30;14.48;;;;;;;;;;5025280;28;20461;-43
2023/11/28 08:29:41;;;;;;;14.52;13.02;;;;;;;;;;5025910;28;20184;-43
2023/11/28 08:32:08;;;;;;;14.38;12.95;;;;;;;;;;5023718;28;20176;-43
2023/11/28 08:34:34;;;;;;;22.30;20.00;;;;;;;;;;5028887;28;20596;-43
2023/11/28 08:37:00;;;;;;;15.63;14.10;;;;;;;;;;5014487;28;20207;-43
2023/11/28 08:39:26;;;;;;;12.33;10.17;;;;;;;;;;5014431;28;20418;-43
2023/11/28 08:41:54;;;;;;;12.40;11.10;;;;;;;;;;5025903;28;20830;-43
2023/11/28 08:44:20;;;;;;;18.00;16.13;;;;;;;;;;5021400;28;20419;-43
2023/11/28 08:46:45;;;;;;;17.27;13.97;;;;;;;;;;5023964;28;20419;-43
2023/11/28 08:49:11;;;;;;;16.90;15.17;;;;;;;;;;5024552;28;20473;-43
2023/11/28 08:51:39;;;;;;;17.67;15.80;;;;;;;;;;5029251;28;20403;-43
2023/11/28 08:54:05;;;;;;;16.10;13.25;;;;;;;;;;5020326;28;20411;-43
2023/11/28 08:56:31;;;;;;;12.85;11.35;;;;;;;;;;5028230;28;20176;-44
2023/11/28 08:58:56;;;;;;;13.70;12.37;;;;;;;;;;5024111;28;20851;-44
2023/11/28 09:01:22;;;;;;;15.73;14.37;;;;;;;;;;5020786;28;20777;-43
2023/11/28 09:03:50;;;;;;;17.87;16.27;;;;;;;;;;5025608;28;20874;-43
2023/11/28 09:06:16;;;;;;;18.63;17.05;;;;;;;;;;5025684;28;20399;-43
2023/11/28 09:08:42;;;;;;;14.88;13.48;;;;;;;;;;5025471;28;20231;-44
2023/11/28 09:11:08;;;;;;;14.13;12.73;;;;;;;;;;5032750;28;20635;-44
2023/11/28 09:13:34;;;;;;;19.80;17.90;;;;;;;;;;5021936;28;20955;-44
2023/11/28 09:16:05;;;;;;;15.47;14.07;;;;;;;;;;5013312;28;20973;-44
2023/11/28 09:18:32;;;;;;;15.80;14.20;;;;;;;;;;5029417;28;20429;-44
2023/11/28 09:20:58;;;;;;;18.90;17.40;;;;;;;;;;5025126;28;20548;-43
2023/11/28 09:23:24;;;;;;;14.70;13.37;;;;;;;;;;5020540;28;20175;-44
2023/11/28 09:25:50;;;;;;;15.70;14.20;;;;;;;;;;5032824;28;20411;-43
2023/11/28 09:28:16;;;;;;;14.43;13.00;;;;;;;;;;5024013;28;20222;-43
2023/11/28 09:30:42;;;;;;;15.67;14.20;;;;;;;;;;5029506;28;20430;-43
2023/11/28 09:33:08;;;;;;;17.73;16.23;;;;;;;;;;5010881;28;20410;-43
2023/11/28 09:35:34;;;;;;;22.43;20.30;;;;;;;;;;5023715;28;20419;-43
2023/11/28 09:38:00;;;;;;;24.33;22.53;;;;;;;;;;5024690;28;20464;-44
2023/11/28 09:40:26;;;;;;;19.33;17.73;;;;;;;;;;5025282;28;20413;-44
2023/11/28 09:42:52;;;;;;;23.03;21.30;;;;;;;;;;5024753;28;20417;-43
2023/11/28 09:45:19;;;;;;;23.70;21.92;;;;;;;;;;5024715;28;20425;-44
2023/11/28 09:47:46;;;;;;;23.52;21.90;;;;;;;;;;5024720;28;20207;-44
2023/11/28 09:50:12;;;;;;;30.20;28.20;;;;;;;;;;5011329;28;20174;-44
2023/11/28 09:52:40;;;;;;;21.15;19.50;;;;;;;;;;5017527;28;20180;-43
2023/11/28 09:55:07;;;;;;;29.08;26.98;;;;;;;;;;5024862;28;20596;-43
2023/11/28 09:57:34;;;;;;;21.65;20.05;;;;;;;;;;5024026;28;20192;-44
2023/11/28 10:00:01;;;;;;;28.25;26.33;;;;;;;;;;5024443;28;20537;-44
2023/11/28 10:02:27;;;;;;;27.73;25.45;;;;;;;;;;5022949;28;20200;-44
2023/11/28 10:04:54;;;;;;;32.50;30.00;;;;;;;;;;5030273;28;20712;-43
2023/11/28 10:07:26;;;;;;;21.58;19.75;;;;;;;;;;5018135;28;20598;-43
2023/11/28 10:09:54;;;;;;;23.75;21.90;;;;;;;;;;5022334;28;20183;-44
2023/11/28 10:12:20;;;;;;;18.35;16.75;;;;;;;;;;5025660;28;20169;-44
2023/11/28 10:14:46;;;;;;;19.05;17.45;;;;;;;;;;5015095;28;20207;-44
2023/11/28 10:17:12;;;;;;;19.77;18.03;;;;;;;;;;5031986;28;20661;-44
2023/11/28 10:19:38;;;;;;;21.57;19.87;;;;;;;;;;5013983;28;20762;-44
2023/11/28 10:22:07;;;;;;;21.75;20.08;;;;;;;;;;5022201;28;20457;-44
2023/11/28 10:24:34;;;;;;;15.70;14.25;;;;;;;;;;5022859;28;20168;-44
2023/11/28 10:27:00;;;;;;;15.73;14.33;;;;;;;;;;5025199;28;20192;-43
2023/11/28 10:29:29;;;;;;;17.98;16.42;;;;;;;;;;5011963;28;20192;-43
2023/11/28 10:31:56;;;;;;;15.90;14.60;;;;;;;;;;5012372;28;20231;-44
2023/11/28 10:34:22;;;;;;;19.48;17.60;;;;;;;;;;4993098;28;20177;-44
2023/11/28 10:36:48;;;;;;;16.07;14.67;;;;;;;;;;5006755;28;20525;-44
2023/11/28 10:39:18;;;;;;;15.30;13.90;;;;;;;;;;5001422;28;20415;-44
2023/11/28 10:41:45;;;;;;;15.55;14.23;;;;;;;;;;4999737;28;20176;-43
2023/11/28 10:44:11;;;;;;;17.30;15.88;;;;;;;;;;5007793;28;20260;-44
2023/11/28 10:46:38;;;;;;;20.10;18.42;;;;;;;;;;4992309;28;20692;-44
2023/11/28 10:49:07;;;;;;;14.50;13.15;;;;;;;;;;5010774;28;20219;-44
2023/11/28 10:51:35;;;;;;;15.80;14.20;;;;;;;;;;5009846;28;20173;-44
2023/11/28 10:54:07;;;;;;;17.08;15.68;;;;;;;;;;5003045;28;20173;-44
2023/11/28 10:56:39;;;;;;;14.23;13.00;;;;;;;;;;5000127;28;20251;-44
2023/11/28 10:59:07;;;;;;;16.73;15.30;;;;;;;;;;5006774;28;20517;-44
2023/11/28 11:01:33;;;;;;;16.45;15.05;;;;;;;;;;4993265;28;20638;-44
2023/11/28 11:03:59;;;;;;;18.13;16.48;;;;;;;;;;5011769;28;20665;-44
2023/11/28 11:06:25;;;;;;;16.00;14.70;;;;;;;;;;4994735;28;20227;-44
2023/11/28 11:08:51;;;;;;;12.93;11.60;;;;;;;;;;5004839;28;20286;-43
2023/11/28 11:11:18;;;;;;;17.65;16.20;;;;;;;;;;5002731;28;20181;-44
2023/11/28 11:13:52;;;;;;;15.65;14.23;;;;;;;;;;4997539;28;20176;-43
2023/11/28 11:16:23;;;;;;;15.32;13.93;;;;;;;;;;5009174;28;20170;-44
2023/11/28 11:18:50;;;;;;;16.13;14.43;;;;;;;;;;4991138;28;20285;-44
2023/11/28 11:21:28;;;;;;;15.13;13.75;;;;;;;;;;5009248;28;20233;-43
2023/11/28 11:23:55;;;;;;;12.50;11.30;;;;;;;;;;5011176;28;20644;-43
2023/11/28 11:26:39;;;;;;;14.73;13.35;;;;;;;;;;4999028;28;20283;-43
2023/11/28 11:29:19;;;;;;;14.23;12.93;;;;;;;;;;5002006;28;20326;-44
2023/11/28 11:31:50;;;;;;;13.60;12.32;;;;;;;;;;5003172;28;20180;-43
2023/11/28 11:34:35;;;;;;;15.90;14.50;;;;;;;;;;4996585;28;20172;-44
2023/11/28 11:37:08;;;;;;;18.23;16.73;;;;;;;;;;5007899;28;20236;-44
2023/11/28 11:39:35;;;;;;;19.58;18.05;;;;;;;;;;4992026;28;20646;-44
2023/11/28 11:42:01;;;;;;;19.20;17.75;;;;;;;;;;5011706;28;20162;-43
2023/11/28 11:44:27;;;;;;;19.90;18.40;;;;;;;;;;4995414;28;20239;-44
2023/11/28 11:46:53;;;;;;;23.50;21.70;;;;;;;;;;5007393;28;20168;-44
2023/11/28 11:49:20;;;;;;;24.27;22.37;;;;;;;;;;5006853;28;20990;-45
2023/11/28 11:51:46;;;;;;;24.08;22.38;;;;;;;;;;4999561;28;20410;-43
2023/11/28 11:54:12;;;;;;;24.87;22.80;;;;;;;;;;5013666;28;20606;-45
2023/11/28 11:56:38;;;;;;;25.47;23.77;;;;;;;;;;4995104;28;20430;-43
2023/11/28 11:59:04;;;;;;;25.03;23.20;;;;;;;;;;5011053;28;20438;-43
2023/11/28 12:01:33;;;;;;;22.40;20.70;;;;;;;;;;5003427;28;20419;-43
2023/11/28 12:03:59;;;;;;;26.73;24.83;;;;;;;;;;5003341;28;20455;-45
2023/11/28 12:06:25;;;;;;;28.90;26.90;;;;;;;;;;5010600;28;20200;-44
2023/11/28 12:08:51;;;;;;;21.48;19.80;;;;;;;;;;4995083;28;20197;-43
2023/11/28 12:11:18;;;;;;;22.20;20.50;;;;;;;;;;5014738;28;20185;-44
2023/11/28 12:13:44;;;;;;;23.90;22.17;;;;;;;;;;4999158;28;20447;-44
2023/11/28 12:16:10;;;;;;;23.52;21.83;;;;;;;;;;5006508;28;20164;-44
2023/11/28 12:18:37;;;;;;;20.20;18.70;;;;;;;;;;5006920;28;20208;-43
2023/11/28 12:21:04;;;;;;;17.42;16.08;;;;;;;;;;5008353;28;20542;-43
2023/11/28 12:23:31;;;;;;;19.92;18.27;;;;;;;;;;5010525;28;20200;-44
2023/11/28 12:26:00;;;;;;;16.05;14.65;;;;;;;;;;5014168;28;20275;-44
2023/11/28 12:28:26;;;;;;;18.05;16.45;;;;;;;;;;5000366;28;20295;-43
2023/11/28 12:30:53;;;;;;;16.67;15.13;;;;;;;;;;4999025;28;20188;-43
2023/11/28 12:33:19;;;;;;;17.80;16.13;;;;;;;;;;5000772;28;20384;-43
2023/11/28 12:35:47;;;;;;;15.67;14.23;;;;;;;;;;5009343;28;20188;-43
2023/11/28 12:38:14;;;;;;;16.30;14.20;;;;;;;;;;4994303;28;20428;-43
2023/11/28 12:40:40;;;;;;;12.73;11.52;;;;;;;;;;4993393;28;20192;-43
2023/11/28 12:43:06;;;;;;;12.23;11.03;;;;;;;;;;5010478;28;20180;-44
2023/11/28 12:45:33;;;;;;;18.08;16.02;;;;;;;;;;5001991;28;20503;-43
2023/11/28 12:47:59;;;;;;;14.63;13.32;;;;;;;;;;5002171;28;20192;-44
2023/11/28 12:50:27;;;;;;;13.27;11.98;;;;;;;;;;4992494;28;20577;-43
2023/11/28 12:52:53;;;;;;;15.75;14.35;;;;;;;;;;4994524;28;20162;-44
2023/11/28 12:55:21;;;;;;;12.63;11.30;;;;;;;;;;5013615;28;20219;-43
2023/11/28 12:57:49;;;;;;;11.40;10.20;;;;;;;;;;4997528;28;20513;-44
2023/11/28 13:00:15;;;;;;;13.35;12.07;;;;;;;;;;5006557;28;20206;-43
2023/11/28 13:02:41;;;;;;;13.07;11.73;;;;;;;;;;5005572;28;20208;-43
2023/11/28 13:05:07;;;;;;;14.15;12.75;;;;;;;;;;4998121;28;20457;-43
2023/11/28 13:07:33;;;;;;;11.70;10.45;;;;;;;;;;5013173;28;20207;-43
2023/11/28 13:09:59;;;;;;;11.32;10.07;;;;;;;;;;4998310;28;20235;-43
2023/11/28 13:12:26;;;;;;;14.77;11.80;;;;;;;;;;5010515;28;20281;-43
2023/11/28 13:14:52;;;;;;;13.85;11.52;;;;;;;;;;5011245;28;20185;-43
2023/11/28 13:17:18;;;;;;;17.67;14.63;;;;;;;;;;5004002;28;20201;-43
2023/11/28 13:19:44;;;;;;;15.20;12.43;;;;;;;;;;4995716;28;20411;-43
2023/11/28 13:22:13;;;;;;;10.40;8.90;;;;;;;;;;5012004;28;20407;-44
2023/11/28 13:24:39;;;;;;;11.02;8.93;;;;;;;;;;5013569;28;20403;-43
2023/11/28 13:27:06;;;;;;;11.80;10.50;;;;;;;;;;4997105;28;20200;-43
2023/11/28 13:29:32;;;;;;;11.23;9.93;;;;;;;;;;5005425;28;20481;-43
2023/11/28 13:32:00;;;;;;;13.13;11.27;;;;;;;;;;5005286;28;20267;-43
2023/11/28 13:34:26;;;;;;;10.95;9.48;;;;;;;;;;4998062;28;20540;-43
2023/11/28 13:36:52;;;;;;;12.00;9.37;;;;;;;;;;5012723;28;20169;-44
2023/11/28 13:39:18;;;;;;;10.83;9.10;;;;;;;;;;4993599;28;20404;-43
2023/11/28 13:41:44;;;;;;;11.20;10.07;;;;;;;;;;5009150;28;20426;-43
2023/11/28 13:44:10;;;;;;;10.52;9.30;;;;;;;;;;5001327;28;20761;-43
2023/11/28 13:46:36;;;;;;;11.33;10.00;;;;;;;;;;5000564;28;20183;-43
2023/11/28 13:49:02;;;;;;;10.75;8.88;;;;;;;;;;5009223;28;20994;-43
2023/11/28 13:51:28;;;;;;;10.87;9.77;;;;;;;;;;4993383;28;20205;-43
2023/11/28 13:53:55;;;;;;;11.73;10.48;;;;;;;;;;5012719;28;20426;-43
2023/11/28 13:56:21;;;;;;;13.07;11.75;;;;;;;;;;4997439;28;20192;-44
2023/11/28 13:58:47;;;;;;;13.05;11.75;;;;;;;;;;5004277;28;20583;-43
2023/11/28 14:01:13;;;;;;;11.15;10.05;;;;;;;;;;5005456;28;20177;-43
2023/11/28 14:03:39;;;;;;;12.10;10.87;;;;;;;;;;4996152;28;20188;-43
2023/11/28 14:06:05;;;;;;;11.30;10.10;;;;;;;;;;5012612;28;20465;-43
2023/11/28 14:08:33;;;;;;;11.73;10.48;;;;;;;;;;4992894;28;20546;-43
2023/11/28 14:10:59;;;;;;;11.73;10.48;;;;;;;;;;5007903;28;20164;-43
2023/11/28 14:13:25;;;;;;;12.80;11.45;;;;;;;;;;5001544;28;20212;-43
2023/11/28 14:15:51;;;;;;;12.73;11.43;;;;;;;;;;4999381;28;20211;-43
2023/11/28 14:18:17;;;;;;;11.93;10.73;;;;;;;;;;5009516;28;20431;-43